createdAt,value
2023-02-04T00:00:59.081Z,75.08
2023-02-04T00:03:25.865Z,74.92
2023-02-04T00:05:52.508Z,75.51
2023-02-04T00:08:19.135Z,75.00
2023-02-04T00:10:47.161Z,74.41
2023-02-04T00:13:13.811Z,74.73
2023-02-04T00:15:40.416Z,74.72
2023-02-04T00:18:07.123Z,75.21
2023-02-04T00:20:33.742Z,75.06
2023-02-04T00:23:00.407Z,74.90
2023-02-04T00:25:27.379Z,75.20
2023-02-04T00:27:55.408Z,74.93
2023-02-04T00:30:22.062Z,75.53
2023-02-04T00:32:48.665Z,75.09
2023-02-04T00:35:15.263Z,75.77
2023-02-04T00:37:42.147Z,76.00
2023-02-04T00:40:10.369Z,75.68
2023-02-04T00:42:38.832Z,75.31
2023-02-04T00:45:07.881Z,75.87
2023-02-04T00:47:34.542Z,75.31
2023-02-04T00:50:01.113Z,75.04
2023-02-04T00:52:27.960Z,75.13
2023-02-04T00:54:54.637Z,74.83
2023-02-04T00:57:22.232Z,74.92
2023-02-04T00:59:49.004Z,74.98
2023-02-04T01:02:18.739Z,75.03
2023-02-04T01:04:45.366Z,75.18
2023-02-04T01:07:11.934Z,74.52
2023-02-04T01:09:38.495Z,75.23
2023-02-04T01:12:05.163Z,75.52
2023-02-04T01:14:31.705Z,76.05
2023-02-04T01:16:58.427Z,75.97
2023-02-04T01:19:27.407Z,75.28
2023-02-04T01:21:54.224Z,75.48
2023-02-04T01:24:20.775Z,75.30
2023-02-04T01:27:06.196Z,75.24
2023-02-04T01:29:32.845Z,75.42
2023-02-04T01:31:59.521Z,74.98
2023-02-04T01:34:27.499Z,75.27
2023-02-04T01:36:54.172Z,75.31
2023-02-04T01:39:20.834Z,74.47
2023-02-04T01:41:47.567Z,74.41
2023-02-04T01:44:14.347Z,74.33
2023-02-04T01:46:41.215Z,74.34
2023-02-04T01:49:11.010Z,74.85
2023-02-04T01:51:39.465Z,74.75
2023-02-04T01:54:09.482Z,74.80
2023-02-04T01:56:36.045Z,74.64
2023-02-04T01:59:02.743Z,74.48
2023-02-04T02:01:37.542Z,74.62
2023-02-04T02:04:04.870Z,75.20
2023-02-04T02:06:33.592Z,74.94
2023-02-04T02:09:02.373Z,75.25
2023-02-04T02:11:29.443Z,75.50
2023-02-04T02:13:56.258Z,75.42
2023-02-04T02:16:23.285Z,75.03
2023-02-04T02:18:50.730Z,74.93
2023-02-04T02:21:22.205Z,75.48
2023-02-04T02:23:53.899Z,75.40
2023-02-04T02:26:22.240Z,75.14
2023-02-04T02:28:49.566Z,75.17
2023-02-04T02:31:18.594Z,75.76
2023-02-04T02:33:45.686Z,75.75
2023-02-04T02:36:13.303Z,75.79
2023-02-04T02:38:40.224Z,75.71
2023-02-04T02:41:08.252Z,76.05
2023-02-04T02:43:36.506Z,76.28
2023-02-04T02:46:05.188Z,76.36
2023-02-04T02:48:32.598Z,76.51
2023-02-04T02:50:59.246Z,76.33
2023-02-04T02:53:25.835Z,76.34
2023-02-04T02:55:53.054Z,76.77
2023-02-04T02:58:27.965Z,76.43
2023-02-04T03:00:56.924Z,76.84
2023-02-04T03:03:27.128Z,76.59
2023-02-04T03:05:59.355Z,77.08
2023-02-04T03:08:26.533Z,76.75
2023-02-04T03:10:53.349Z,77.14
2023-02-04T03:13:20.923Z,77.69
2023-02-04T03:15:48.964Z,78.20
2023-02-04T03:18:18.811Z,78.42
2023-02-04T03:20:45.890Z,78.63
2023-02-04T03:23:12.822Z,79.24
2023-02-04T03:25:41.460Z,79.19
2023-02-04T03:28:09.155Z,79.60
2023-02-04T03:30:36.467Z,80.25
2023-02-04T03:33:04.589Z,80.53
2023-02-04T03:35:31.122Z,80.68
2023-02-04T03:37:57.628Z,80.86
2023-02-04T03:40:24.137Z,81.41
2023-02-04T03:42:50.661Z,81.65
2023-02-04T03:45:17.271Z,81.28
2023-02-04T03:47:43.786Z,81.60
2023-02-04T03:50:11.640Z,81.52
2023-02-04T03:52:38.190Z,81.75
2023-02-04T03:55:05.136Z,81.92
2023-02-04T03:57:31.834Z,82.21
2023-02-04T03:59:58.502Z,82.17
2023-02-04T04:02:25.176Z,82.60
2023-02-04T04:04:51.761Z,82.90
2023-02-04T04:07:19.898Z,82.58
2023-02-04T04:09:46.412Z,83.06
2023-02-04T04:12:12.964Z,82.98
2023-02-04T04:14:39.487Z,82.88
2023-02-04T04:17:06.039Z,82.72
2023-02-04T04:19:32.598Z,83.27
2023-02-04T04:21:59.170Z,83.26
2023-02-04T04:24:27.087Z,83.06
2023-02-04T04:26:53.772Z,83.64
2023-02-04T04:29:20.540Z,83.60
2023-02-04T04:31:47.193Z,83.94
2023-02-04T04:34:14.069Z,83.43
2023-02-04T04:36:40.654Z,84.04
2023-02-04T04:39:07.148Z,84.08
2023-02-04T04:41:35.130Z,83.88
2023-02-04T04:44:02.089Z,84.03
2023-02-04T04:46:28.709Z,83.84
2023-02-04T04:48:55.255Z,84.17
2023-02-04T04:51:21.855Z,83.82
2023-02-04T04:53:48.408Z,84.54
2023-02-04T04:56:14.985Z,83.96
2023-02-04T04:58:42.883Z,84.47
2023-02-04T05:01:09.459Z,84.38
2023-02-04T05:03:36.057Z,84.59
2023-02-04T05:06:02.763Z,84.18
2023-02-04T05:08:29.302Z,84.44
2023-02-04T05:10:55.866Z,84.28
2023-02-04T05:13:22.368Z,84.44
2023-02-04T05:15:50.228Z,84.01
2023-02-04T05:18:17.030Z,84.46
2023-02-04T05:20:43.557Z,84.35
2023-02-04T05:23:10.094Z,84.24
2023-02-04T05:25:36.663Z,84.40
2023-02-04T05:28:03.519Z,84.31
2023-02-04T05:30:30.228Z,84.84
2023-02-04T05:32:58.549Z,84.48
2023-02-04T05:35:25.090Z,84.71
2023-02-04T05:37:51.632Z,84.61
2023-02-04T05:40:18.492Z,84.93
2023-02-04T05:42:45.016Z,84.81
2023-02-04T05:45:15.078Z,85.09
2023-02-04T05:47:41.814Z,85.45
2023-02-04T05:50:10.841Z,85.42
2023-02-04T05:52:37.427Z,85.82
2023-02-04T05:55:04.908Z,85.39
2023-02-04T05:57:31.427Z,85.15
2023-02-04T05:59:58.197Z,85.51
2023-02-04T06:02:24.852Z,85.69
2023-02-04T06:04:51.363Z,85.65
2023-02-04T06:07:19.242Z,85.89
2023-02-04T06:09:45.775Z,86.10
2023-02-04T06:12:12.449Z,85.93
2023-02-04T06:14:39.213Z,86.26
2023-02-04T06:17:05.763Z,86.14
2023-02-04T06:19:32.301Z,85.87
2023-02-04T06:21:58.831Z,86.32
2023-02-04T06:24:26.758Z,86.69
2023-02-04T06:26:53.316Z,86.03
2023-02-04T06:29:19.870Z,86.68
2023-02-04T06:31:46.636Z,86.21
2023-02-04T06:34:13.182Z,86.71
2023-02-04T06:36:39.935Z,86.21
2023-02-04T06:39:06.619Z,86.59
2023-02-04T06:41:34.529Z,86.53
2023-02-04T06:44:01.181Z,86.67
2023-02-04T06:46:27.772Z,87.00
2023-02-04T06:48:54.367Z,87.18
2023-02-04T06:51:20.901Z,87.01
2023-02-04T06:53:47.748Z,87.38
2023-02-04T06:56:14.264Z,87.18
2023-02-04T06:58:42.106Z,87.43
2023-02-04T07:01:08.915Z,87.45
2023-02-04T07:03:35.446Z,86.84
2023-02-04T07:06:01.978Z,87.38
2023-02-04T07:08:28.565Z,87.07
2023-02-04T07:10:55.109Z,87.39
2023-02-04T07:13:21.613Z,87.51
2023-02-04T07:15:49.552Z,87.25
2023-02-04T07:18:16.188Z,87.11
2023-02-04T07:20:42.737Z,87.26
2023-02-04T07:23:09.253Z,87.07
2023-02-04T07:25:35.783Z,87.17
2023-02-04T07:28:02.376Z,87.34
2023-02-04T07:30:29.362Z,87.86
2023-02-04T07:32:57.521Z,88.00
2023-02-04T07:35:24.099Z,88.14
2023-02-04T07:37:52.772Z,87.59
2023-02-04T07:40:19.297Z,87.53
2023-02-04T07:42:45.819Z,87.51
2023-02-04T07:45:17.130Z,87.62
2023-02-04T07:47:43.915Z,87.78
2023-02-04T07:50:11.848Z,87.63
2023-02-04T07:52:38.469Z,87.84
2023-02-04T07:55:05.841Z,87.95
2023-02-04T07:57:32.507Z,87.97
2023-02-04T07:59:59.055Z,88.02
2023-02-04T08:02:26.158Z,87.70
2023-02-04T08:04:53.084Z,87.97
2023-02-04T08:07:21.073Z,88.00
2023-02-04T08:09:48.347Z,88.06
2023-02-04T08:12:14.936Z,87.88
2023-02-04T08:14:41.458Z,87.30
2023-02-04T08:17:08.061Z,87.47
2023-02-04T08:19:34.599Z,87.51
2023-02-04T08:22:01.285Z,87.35
2023-02-04T08:24:29.184Z,86.97
2023-02-04T08:26:55.894Z,86.66
2023-02-04T08:29:22.484Z,86.06
2023-02-04T08:31:49.168Z,85.96
2023-02-04T08:34:15.843Z,85.96
2023-02-04T08:36:42.710Z,85.94
2023-02-04T08:39:09.228Z,86.10
2023-02-04T08:41:37.265Z,85.69
2023-02-04T08:44:04.313Z,85.55
2023-02-04T08:46:31.282Z,85.15
2023-02-04T08:48:57.961Z,85.31
2023-02-04T08:51:24.670Z,85.21
2023-02-04T08:53:51.231Z,85.34
2023-02-04T08:56:17.877Z,85.19
2023-02-04T08:58:46.285Z,84.75
2023-02-04T09:01:13.130Z,83.63
2023-02-04T09:03:39.907Z,83.17
2023-02-04T09:06:07.203Z,81.90
2023-02-04T09:08:33.814Z,81.20
2023-02-04T09:11:00.407Z,81.57
2023-02-04T09:13:28.216Z,81.52
2023-02-04T09:15:56.278Z,81.69
2023-02-04T09:18:23.084Z,81.00
2023-02-04T09:20:50.337Z,80.91
2023-02-04T09:23:17.174Z,80.53
2023-02-04T09:25:45.267Z,80.06
2023-02-04T09:28:13.320Z,79.94
2023-02-04T09:30:41.210Z,79.49
2023-02-04T09:33:11.038Z,78.99
2023-02-04T09:35:38.039Z,78.65
2023-02-04T09:38:05.050Z,78.18
2023-02-04T09:40:34.398Z,78.01
2023-02-04T09:43:02.919Z,77.65
2023-02-04T09:45:33.248Z,76.79
2023-02-04T09:48:02.555Z,76.75
2023-02-04T09:50:31.918Z,77.32
2023-02-04T09:53:01.742Z,77.32
2023-02-04T09:55:31.792Z,77.89
2023-02-04T09:57:58.299Z,77.81
2023-02-04T10:00:27.081Z,77.98
2023-02-04T10:02:53.847Z,77.51
2023-02-04T10:05:27.182Z,76.25
2023-02-04T10:07:55.296Z,76.04
2023-02-04T10:10:24.486Z,74.91
2023-02-04T10:12:53.243Z,75.64
2023-02-04T10:15:21.293Z,74.96
2023-02-04T10:17:50.490Z,75.53
2023-02-04T10:20:23.533Z,75.15
2023-02-04T10:22:53.342Z,74.83
2023-02-04T10:25:23.716Z,74.60
2023-02-04T10:27:52.128Z,74.23
2023-02-04T10:30:21.160Z,74.27
2023-02-04T10:32:48.270Z,74.04
2023-02-04T10:35:16.724Z,73.98
2023-02-04T10:37:43.712Z,71.63
2023-02-04T10:40:27.954Z,71.03
2023-02-04T10:42:54.664Z,70.16
2023-02-04T10:45:23.079Z,69.75
2023-02-04T10:47:51.556Z,68.84
2023-02-04T10:50:19.731Z,68.74
2023-02-04T10:52:50.011Z,68.36
2023-02-04T10:55:18.557Z,69.16
2023-02-04T10:57:48.721Z,69.48
2023-02-04T11:00:17.937Z,69.88
2023-02-04T11:02:48.088Z,69.66
2023-02-04T11:05:17.845Z,70.19
2023-02-04T11:07:45.211Z,70.31
2023-02-04T11:10:14.763Z,70.06
2023-02-04T11:12:43.047Z,70.30
2023-02-04T11:15:39.015Z,69.69
2023-02-04T11:18:08.208Z,69.46
2023-02-04T11:20:35.528Z,68.72
2023-02-04T11:23:29.245Z,69.60
2023-02-04T11:26:03.464Z,69.37
2023-02-04T11:28:44.528Z,69.22
2023-02-04T11:31:27.828Z,69.33
2023-02-04T11:34:24.270Z,67.42
2023-02-04T11:36:55.785Z,66.66
2023-02-04T11:39:26.862Z,66.94
2023-02-04T11:41:53.712Z,67.51
2023-02-04T11:44:20.508Z,66.89
2023-02-04T11:46:52.045Z,66.96
2023-02-04T11:49:20.362Z,66.50
2023-02-04T11:51:47.058Z,65.89
2023-02-04T11:54:15.100Z,64.29
2023-02-04T11:56:42.071Z,65.19
2023-02-04T11:59:11.126Z,64.91
2023-02-04T12:01:37.676Z,64.95
2023-02-04T12:04:08.078Z,65.26
2023-02-04T12:06:37.158Z,65.70
2023-02-04T12:09:07.491Z,65.14
2023-02-04T12:11:34.082Z,64.35
2023-02-04T12:14:08.222Z,65.34
2023-02-04T12:16:40.562Z,65.43
2023-02-04T12:19:08.623Z,65.50
2023-02-04T12:21:35.204Z,65.37
2023-02-04T12:24:01.803Z,65.16
2023-02-04T12:26:28.327Z,65.45
2023-02-04T12:28:54.881Z,64.58
2023-02-04T12:31:21.497Z,64.28
2023-02-04T12:33:48.273Z,65.03
2023-02-04T12:36:16.170Z,65.96
2023-02-04T12:38:42.739Z,65.93
2023-02-04T12:41:09.853Z,65.64
2023-02-04T12:43:36.485Z,65.35
2023-02-04T12:46:03.178Z,66.09
2023-02-04T12:48:30.214Z,65.92
2023-02-04T12:50:56.857Z,66.51
2023-02-04T12:53:24.820Z,66.03
2023-02-04T12:55:51.495Z,66.02
2023-02-04T12:58:18.117Z,65.92
2023-02-04T13:00:44.689Z,65.68
2023-02-04T13:03:11.361Z,65.20
2023-02-04T13:05:37.885Z,65.09
2023-02-04T13:08:04.962Z,64.45
2023-02-04T13:10:32.846Z,64.24
2023-02-04T13:12:59.540Z,63.33
2023-02-04T13:15:26.207Z,63.13
2023-02-04T13:17:53.307Z,62.94
2023-02-04T13:20:20.096Z,63.88
2023-02-04T13:22:46.717Z,65.03
2023-02-04T13:25:13.313Z,65.26
2023-02-04T13:27:41.325Z,64.28
2023-02-04T13:30:09.337Z,64.52
2023-02-04T13:32:35.980Z,64.10
2023-02-04T13:35:02.763Z,63.97
2023-02-04T13:37:29.351Z,63.83
2023-02-04T13:39:55.909Z,64.01
2023-02-04T13:42:22.524Z,63.54
2023-02-04T13:44:50.380Z,64.24
2023-02-04T13:47:17.079Z,64.83
2023-02-04T13:49:43.603Z,64.01
2023-02-04T13:52:10.160Z,64.69
2023-02-04T13:54:36.872Z,64.83
2023-02-04T13:57:03.569Z,64.79
2023-02-04T13:59:30.073Z,64.79
2023-02-04T14:01:58.814Z,64.54
2023-02-04T14:04:25.427Z,64.41
2023-02-04T14:06:52.000Z,64.74
2023-02-04T14:09:18.522Z,64.64
2023-02-04T14:11:45.104Z,65.03
2023-02-04T14:14:11.612Z,65.31
2023-02-04T14:16:38.206Z,64.58
2023-02-04T14:19:06.487Z,63.50
2023-02-04T14:21:33.174Z,63.69
2023-02-04T14:23:59.987Z,63.35
2023-02-04T14:26:26.650Z,62.77
2023-02-04T14:28:53.180Z,62.04
2023-02-04T14:31:19.881Z,60.57
2023-02-04T14:33:48.039Z,60.79
2023-02-04T14:36:17.251Z,60.50
2023-02-04T14:38:43.807Z,59.74
2023-02-04T14:41:10.460Z,60.67
2023-02-04T14:43:37.010Z,60.96
2023-02-04T14:46:05.604Z,61.46
2023-02-04T14:48:32.667Z,61.48
2023-02-04T14:50:59.285Z,60.95
2023-02-04T14:53:27.180Z,60.44
2023-02-04T14:55:54.057Z,60.91
2023-02-04T14:58:20.561Z,61.55
2023-02-04T15:00:47.475Z,61.85
2023-02-04T15:03:13.978Z,61.58
2023-02-04T15:05:40.532Z,61.73
2023-02-04T15:08:07.086Z,61.47
2023-02-04T15:10:35.393Z,61.56
2023-02-04T15:13:02.180Z,62.06
2023-02-04T15:15:28.759Z,62.58
2023-02-04T15:17:55.301Z,62.52
2023-02-04T15:20:22.166Z,61.78
2023-02-04T15:22:48.718Z,61.21
2023-02-04T15:25:15.474Z,60.94
2023-02-04T15:27:43.397Z,61.53
2023-02-04T15:30:10.930Z,61.57
2023-02-04T15:32:37.412Z,61.32
2023-02-04T15:35:04.609Z,61.80
2023-02-04T15:37:31.440Z,62.47
2023-02-04T15:39:58.137Z,62.95
2023-02-04T15:42:24.807Z,63.52
2023-02-04T15:44:52.793Z,63.99
2023-02-04T15:47:19.285Z,64.54
2023-02-04T15:49:46.152Z,64.91
2023-02-04T15:52:24.112Z,65.64
2023-02-04T15:54:52.318Z,65.96
2023-02-04T15:57:18.969Z,66.65
2023-02-04T15:59:45.536Z,67.24
2023-02-04T16:02:15.785Z,67.55
2023-02-04T16:04:42.430Z,68.07
2023-02-04T16:07:08.921Z,68.17
2023-02-04T16:09:35.760Z,69.15
2023-02-04T16:12:03.057Z,69.16
2023-02-04T16:14:29.719Z,69.15
2023-02-04T16:16:56.320Z,69.14
2023-02-04T16:19:24.268Z,69.49
2023-02-04T16:21:50.733Z,69.93
2023-02-04T16:24:17.260Z,70.13
2023-02-04T16:26:43.828Z,70.28
2023-02-04T16:29:10.401Z,71.35
2023-02-04T16:31:36.913Z,71.99
2023-02-04T16:34:03.964Z,72.44
2023-02-04T16:36:31.834Z,72.93
2023-02-04T16:38:59.933Z,72.84
2023-02-04T16:41:26.499Z,73.25
2023-02-04T16:43:53.091Z,72.98
2023-02-04T16:46:19.622Z,73.91
2023-02-04T16:48:46.451Z,74.14
2023-02-04T16:51:15.804Z,74.91
2023-02-04T16:53:43.724Z,75.84
2023-02-04T16:56:10.615Z,76.07
2023-02-04T16:58:37.366Z,76.09
2023-02-04T17:01:04.103Z,76.25
2023-02-04T17:03:30.737Z,76.70
2023-02-04T17:05:57.661Z,76.33
2023-02-04T17:08:24.510Z,76.78
2023-02-04T17:10:52.541Z,76.92
2023-02-04T17:13:19.390Z,77.70
2023-02-04T17:15:45.920Z,78.43
2023-02-04T17:18:12.953Z,78.70
2023-02-04T17:20:39.463Z,79.26
2023-02-04T17:23:06.055Z,80.07
2023-02-04T17:25:32.879Z,79.95
2023-02-04T17:28:01.005Z,80.77
2023-02-04T17:30:27.704Z,81.43
2023-02-04T17:32:54.370Z,81.73
2023-02-04T17:35:20.926Z,81.74
2023-02-04T17:37:47.505Z,81.88
2023-02-04T17:40:14.039Z,82.12
2023-02-04T17:42:41.525Z,82.49
2023-02-04T17:45:11.075Z,82.98
2023-02-04T17:47:38.415Z,83.16
2023-02-04T17:50:07.438Z,83.12
2023-02-04T17:52:34.445Z,83.37
2023-02-04T17:55:01.346Z,83.35
2023-02-04T17:57:28.238Z,83.49
2023-02-04T17:59:54.723Z,83.26
2023-02-04T18:02:26.437Z,83.99
2023-02-04T18:04:55.088Z,83.83
2023-02-04T18:07:22.564Z,84.28
2023-02-04T18:09:49.163Z,84.13
2023-02-04T18:12:18.902Z,84.65
2023-02-04T18:14:45.622Z,84.83
2023-02-04T18:17:14.683Z,84.23
2023-02-04T18:19:43.288Z,84.19
2023-02-04T18:22:11.696Z,84.15
2023-02-04T18:24:39.816Z,84.34
2023-02-04T18:27:16.069Z,84.73
2023-02-04T18:29:45.071Z,85.43
2023-02-04T18:32:18.863Z,84.95
2023-02-04T18:34:49.910Z,85.24
2023-02-04T18:37:25.886Z,84.93
2023-02-04T18:39:53.406Z,85.63
2023-02-04T18:42:24.850Z,85.66
2023-02-04T18:44:51.667Z,85.76
2023-02-04T18:47:27.593Z,85.65
2023-02-04T18:49:55.920Z,85.84
2023-02-04T18:52:22.755Z,86.61
2023-02-04T18:54:51.165Z,86.55
2023-02-04T18:57:35.508Z,86.62
2023-02-04T19:00:28.393Z,86.20
2023-02-04T19:02:57.609Z,86.54
2023-02-04T19:05:36.192Z,86.87
2023-02-04T19:08:20.741Z,87.08
2023-02-04T19:10:47.742Z,86.72
2023-02-04T19:13:18.831Z,87.54
2023-02-04T19:15:54.169Z,87.12
2023-02-04T19:18:25.150Z,87.52
2023-02-04T19:20:53.115Z,87.82
2023-02-04T19:23:21.974Z,87.60
2023-02-04T19:25:50.025Z,87.52
2023-02-04T19:28:26.401Z,87.28
2023-02-04T19:30:58.491Z,87.36
2023-02-04T19:33:27.792Z,86.75
2023-02-04T19:35:55.638Z,87.25
2023-02-04T19:38:36.588Z,87.46
2023-02-04T19:41:18.566Z,88.02
2023-02-04T19:43:45.132Z,87.42
2023-02-04T19:46:20.808Z,87.87
2023-02-04T19:48:47.501Z,87.28
2023-02-04T19:51:31.784Z,87.49
2023-02-04T19:54:10.527Z,86.99
2023-02-04T19:56:39.569Z,86.93
2023-02-04T19:59:22.076Z,87.17
2023-02-04T20:01:48.871Z,87.09
2023-02-04T20:04:19.289Z,87.33
2023-02-04T20:06:48.113Z,87.50
2023-02-04T20:09:17.158Z,87.78
2023-02-04T20:12:08.562Z,87.43
2023-02-04T20:14:47.406Z,87.87
2023-02-04T20:17:39.152Z,87.88
2023-02-04T20:20:23.842Z,87.68
2023-02-04T20:22:54.905Z,88.22
2023-02-04T20:25:43.437Z,88.67
2023-02-04T20:28:16.305Z,89.31
2023-02-04T20:30:43.195Z,88.83
2023-02-04T20:33:22.865Z,89.16
2023-02-04T20:36:25.162Z,88.77
2023-02-04T20:39:13.500Z,89.30
2023-02-04T20:41:40.190Z,89.45
2023-02-04T20:44:15.068Z,89.15
2023-02-04T20:46:41.725Z,89.75
2023-02-04T20:49:21.790Z,89.31
2023-02-04T20:51:48.544Z,89.14
2023-02-04T20:54:17.976Z,89.27
2023-02-04T20:56:44.698Z,89.94
2023-02-04T20:59:26.824Z,89.89
2023-02-04T21:01:53.415Z,90.11
2023-02-04T21:04:24.423Z,90.21
2023-02-04T21:06:52.990Z,89.60
2023-02-04T21:09:24.364Z,90.06
2023-02-04T21:11:51.277Z,89.54
2023-02-04T21:14:17.900Z,89.89
2023-02-04T21:16:44.565Z,89.81
2023-02-04T21:19:11.147Z,89.68
2023-02-04T21:21:37.836Z,89.52
2023-02-04T21:24:05.282Z,89.16
2023-02-04T21:26:33.392Z,89.65
2023-02-04T21:29:00.193Z,89.44
2023-02-04T21:31:26.916Z,89.75
2023-02-04T21:33:53.435Z,89.77
2023-02-04T21:36:20.002Z,89.22
2023-02-04T21:38:46.557Z,89.28
2023-02-04T21:41:13.690Z,89.04
2023-02-04T21:43:41.845Z,89.33
2023-02-04T21:46:08.500Z,89.18
2023-02-04T21:48:35.261Z,89.03
2023-02-04T21:51:01.870Z,88.97
2023-02-04T21:53:28.395Z,89.01
2023-02-04T21:55:54.965Z,88.37
2023-02-04T21:58:21.463Z,89.09
2023-02-04T22:00:49.533Z,89.44
2023-02-04T22:03:16.108Z,89.37
2023-02-04T22:05:43.240Z,89.23
2023-02-04T22:08:10.480Z,89.70
2023-02-04T22:10:37.375Z,89.67
2023-02-04T22:13:04.247Z,89.38
2023-02-04T22:15:31.026Z,89.33
2023-02-04T22:17:59.112Z,89.65
2023-02-04T22:20:25.895Z,89.87
2023-02-04T22:22:52.717Z,89.90
2023-02-04T22:25:20.993Z,89.09
2023-02-04T22:27:47.645Z,89.07
2023-02-04T22:30:16.192Z,88.98
2023-02-04T22:32:43.026Z,89.05
2023-02-04T22:35:11.873Z,89.33
2023-02-04T22:37:40.371Z,89.04
2023-02-04T22:40:08.769Z,88.67
2023-02-04T22:42:35.288Z,89.05
2023-02-04T22:45:02.217Z,88.81
2023-02-04T22:47:29.021Z,89.22
2023-02-04T22:49:55.578Z,89.31
2023-02-04T22:52:23.445Z,88.13
2023-02-04T22:54:50.082Z,88.97
2023-02-04T22:57:16.572Z,88.90
2023-02-04T22:59:43.424Z,90.07
2023-02-04T23:02:10.087Z,89.70
2023-02-04T23:04:36.697Z,89.98
2023-02-04T23:07:03.366Z,89.88
2023-02-04T23:09:31.588Z,89.93
2023-02-04T23:11:58.614Z,89.71
2023-02-04T23:14:25.271Z,89.41
2023-02-04T23:16:52.009Z,89.06
2023-02-04T23:19:18.803Z,89.72
2023-02-04T23:21:45.331Z,90.17
2023-02-04T23:24:12.250Z,90.09
2023-02-04T23:26:40.464Z,90.16
2023-02-04T23:29:07.087Z,90.62
2023-02-04T23:31:33.608Z,90.00
2023-02-04T23:34:00.268Z,90.48
2023-02-04T23:36:26.860Z,90.62
2023-02-04T23:38:53.770Z,90.91
2023-02-04T23:41:20.338Z,90.64
2023-02-04T23:43:48.287Z,90.53
2023-02-04T23:46:14.847Z,91.21
2023-02-04T23:48:41.511Z,90.79
2023-02-04T23:51:08.428Z,90.15
2023-02-04T23:53:35.283Z,90.27
2023-02-04T23:56:01.915Z,90.56
2023-02-04T23:58:28.599Z,91.19
